sensor_id;sensor_type;location;lat;lon;timestamp;pressure;altitude;pressure_sealevel;temperature;humidity
70200;BME280;57587;55.688;37.600;2023-02-17T00:00:56;100275.50;;;-4.06;52.42
70200;BME280;57587;55.688;37.600;2023-02-17T00:03:24;100284.72;;;-4.17;53.02
70200;BME280;57587;55.688;37.600;2023-02-17T00:05:51;100273.97;;;-4.10;53.33
70200;BME280;57587;55.688;37.600;2023-02-17T00:08:19;100282.75;;;-4.11;53.05
70200;BME280;57587;55.688;37.600;2023-02-17T00:10:54;100273.03;;;-4.09;53.00
70200;BME280;57587;55.688;37.600;2023-02-17T00:13:22;100282.84;;;-3.96;52.77
70200;BME280;57587;55.688;37.600;2023-02-17T00:15:49;100278.84;;;-3.85;53.58
70200;BME280;57587;55.688;37.600;2023-02-17T00:18:16;100284.47;;;-3.76;52.29
70200;BME280;57587;55.688;37.600;2023-02-17T00:20:43;100283.84;;;-3.98;52.68
70200;BME280;57587;55.688;37.600;2023-02-17T00:23:10;100283.44;;;-3.90;52.60
70200;BME280;57587;55.688;37.600;2023-02-17T00:25:38;100276.53;;;-3.91;53.20
70200;BME280;57587;55.688;37.600;2023-02-17T00:28:05;100278.78;;;-3.84;52.52
70200;BME280;57587;55.688;37.600;2023-02-17T00:30:33;100280.38;;;-3.81;52.35
70200;BME280;57587;55.688;37.600;2023-02-17T00:33:00;100280.47;;;-3.83;52.54
70200;BME280;57587;55.688;37.600;2023-02-17T00:35:27;100273.53;;;-4.01;53.34
70200;BME280;57587;55.688;37.600;2023-02-17T00:37:54;100274.91;;;-3.94;53.26
70200;BME280;57587;55.688;37.600;2023-02-17T00:40:21;100265.09;;;-4.25;53.83
70200;BME280;57587;55.688;37.600;2023-02-17T00:42:48;100270.59;;;-4.31;53.99
70200;BME280;57587;55.688;37.600;2023-02-17T00:45:15;100270.66;;;-4.14;54.17
70200;BME280;57587;55.688;37.600;2023-02-17T00:47:42;100265.19;;;-4.09;53.75
70200;BME280;57587;55.688;37.600;2023-02-17T00:50:09;100270.44;;;-4.09;53.41
70200;BME280;57587;55.688;37.600;2023-02-17T00:52:36;100273.44;;;-4.36;53.35
70200;BME280;57587;55.688;37.600;2023-02-17T00:55:04;100270.59;;;-4.31;52.90
70200;BME280;57587;55.688;37.600;2023-02-17T00:57:31;100252.66;;;-4.20;52.69
70200;BME280;57587;55.688;37.600;2023-02-17T00:59:58;100257.31;;;-4.08;52.55
70200;BME280;57587;55.688;37.600;2023-02-17T01:02:25;100263.66;;;-4.13;52.82
70200;BME280;57587;55.688;37.600;2023-02-17T01:04:52;100260.75;;;-4.07;52.50
70200;BME280;57587;55.688;37.600;2023-02-17T01:07:20;100258.97;;;-4.24;52.81
70200;BME280;57587;55.688;37.600;2023-02-17T01:09:47;100249.81;;;-4.15;53.29
70200;BME280;57587;55.688;37.600;2023-02-17T01:12:14;100254.44;;;-4.03;52.63
70200;BME280;57587;55.688;37.600;2023-02-17T01:14:41;100259.84;;;-3.89;52.92
70200;BME280;57587;55.688;37.600;2023-02-17T01:17:08;100254.25;;;-3.81;52.77
70200;BME280;57587;55.688;37.600;2023-02-17T01:19:35;100249.50;;;-3.73;52.05
70200;BME280;57587;55.688;37.600;2023-02-17T01:22:02;100260.13;;;-3.59;52.39
70200;BME280;57587;55.688;37.600;2023-02-17T01:24:29;100254.72;;;-3.56;52.06
70200;BME280;57587;55.688;37.600;2023-02-17T01:26:56;100255.41;;;-3.52;51.95
70200;BME280;57587;55.688;37.600;2023-02-17T01:29:26;100254.41;;;-3.50;51.77
70200;BME280;57587;55.688;37.600;2023-02-17T01:31:53;100255.88;;;-3.61;51.82
70200;BME280;57587;55.688;37.600;2023-02-17T01:34:20;100248.72;;;-3.40;52.20
70200;BME280;57587;55.688;37.600;2023-02-17T01:36:47;100253.31;;;-3.28;51.84
70200;BME280;57587;55.688;37.600;2023-02-17T01:39:15;100251.06;;;-3.18;52.40
70200;BME280;57587;55.688;37.600;2023-02-17T01:41:45;100254.38;;;-3.15;52.01
70200;BME280;57587;55.688;37.600;2023-02-17T01:46:41;100248.31;;;-2.99;51.08
70200;BME280;57587;55.688;37.600;2023-02-17T01:49:32;100250.69;;;-2.95;51.70
70200;BME280;57587;55.688;37.600;2023-02-17T01:52:16;100255.59;;;-2.89;51.13
70200;BME280;57587;55.688;37.600;2023-02-17T01:57:21;100250.69;;;-2.95;50.37
70200;BME280;57587;55.688;37.600;2023-02-17T01:59:49;100249.28;;;-2.85;50.71
70200;BME280;57587;55.688;37.600;2023-02-17T02:02:17;100255.28;;;-2.83;50.77
70200;BME280;57587;55.688;37.600;2023-02-17T02:04:47;100255.28;;;-2.83;49.88
70200;BME280;57587;55.688;37.600;2023-02-17T02:07:19;100252.81;;;-2.86;50.39
70200;BME280;57587;55.688;37.600;2023-02-17T02:09:54;100254.09;;;-2.93;50.84
70200;BME280;57587;55.688;37.600;2023-02-17T02:12:25;100254.56;;;-3.02;50.88
70200;BME280;57587;55.688;37.600;2023-02-17T02:14:56;100256.09;;;-2.98;50.64
70200;BME280;57587;55.688;37.600;2023-02-17T02:33:40;100254.25;;;-2.96;51.56
70200;BME280;57587;55.688;37.600;2023-02-17T02:36:12;100253.81;;;-2.88;51.51
70200;BME280;57587;55.688;37.600;2023-02-17T02:39:08;100254.31;;;-2.97;51.20
70200;BME280;57587;55.688;37.600;2023-02-17T02:41:40;100252.44;;;-3.29;52.62
70200;BME280;57587;55.688;37.600;2023-02-17T02:44:13;100246.22;;;-3.26;52.42
70200;BME280;57587;55.688;37.600;2023-02-17T02:46:40;100245.06;;;-3.20;52.80
70200;BME280;57587;55.688;37.600;2023-02-17T02:49:09;100251.59;;;-3.29;53.04
70200;BME280;57587;55.688;37.600;2023-02-17T02:51:42;100246.22;;;-3.26;52.54
70200;BME280;57587;55.688;37.600;2023-02-17T03:05:25;100261.91;;;-3.26;53.84
70200;BME280;57587;55.688;37.600;2023-02-17T03:08:10;100261.72;;;-3.39;53.49
70200;BME280;57587;55.688;37.600;2023-02-17T03:10:50;100256.47;;;-3.39;53.70
70200;BME280;57587;55.688;37.600;2023-02-17T03:13:18;100260.25;;;-3.44;53.79
70200;BME280;57587;55.688;37.600;2023-02-17T03:15:47;100254.84;;;-3.41;54.21
70200;BME280;57587;55.688;37.600;2023-02-17T03:18:14;100256.78;;;-3.28;53.05
70200;BME280;57587;55.688;37.600;2023-02-17T03:20:48;100258.63;;;-3.47;53.79
70200;BME280;57587;55.688;37.600;2023-02-17T03:23:17;100248.88;;;-3.61;53.46
70200;BME280;57587;55.688;37.600;2023-02-17T03:25:44;100250.19;;;-3.69;53.74
70200;BME280;57587;55.688;37.600;2023-02-17T03:28:13;100250.13;;;-3.68;54.15
70200;BME280;57587;55.688;37.600;2023-02-17T03:30:41;100247.56;;;-3.52;54.33
70200;BME280;57587;55.688;37.600;2023-02-17T03:33:10;100248.16;;;-3.47;53.52
70200;BME280;57587;55.688;37.600;2023-02-17T03:35:37;100239.09;;;-3.40;53.55
70200;BME280;57587;55.688;37.600;2023-02-17T03:38:04;100238.09;;;-3.37;52.88
70200;BME280;57587;55.688;37.600;2023-02-17T03:40:31;100237.38;;;-3.41;53.34
70200;BME280;57587;55.688;37.600;2023-02-17T03:42:58;100249.50;;;-3.56;54.21
70200;BME280;57587;55.688;37.600;2023-02-17T03:45:25;100244.09;;;-3.70;54.88
70200;BME280;57587;55.688;37.600;2023-02-17T03:47:52;100245.34;;;-3.77;55.61
70200;BME280;57587;55.688;37.600;2023-02-17T03:50:19;100246.50;;;-3.83;55.92
70200;BME280;57587;55.688;37.600;2023-02-17T03:52:46;100249.22;;;-4.03;57.21
70200;BME280;57587;55.688;37.600;2023-02-17T03:55:13;100254.34;;;-4.19;56.95
70200;BME280;57587;55.688;37.600;2023-02-17T03:57:40;100246.19;;;-4.30;57.86
70200;BME280;57587;55.688;37.600;2023-02-17T04:00:08;100251.63;;;-4.35;58.09
70200;BME280;57587;55.688;37.600;2023-02-17T04:02:41;100251.06;;;-4.42;58.28
70200;BME280;57587;55.688;37.600;2023-02-17T04:05:10;100258.25;;;-4.47;58.58
70200;BME280;57587;55.688;37.600;2023-02-17T04:07:37;100261.84;;;-4.49;58.90
70200;BME280;57587;55.688;37.600;2023-02-17T04:10:05;100253.41;;;-4.54;59.53
70200;BME280;57587;55.688;37.600;2023-02-17T04:12:35;100261.25;;;-4.54;59.23
70200;BME280;57587;55.688;37.600;2023-02-17T04:15:02;100258.69;;;-4.56;59.91
70200;BME280;57587;55.688;37.600;2023-02-17T04:17:29;100251.56;;;-4.52;59.71
70200;BME280;57587;55.688;37.600;2023-02-17T04:19:56;100257.66;;;-4.52;59.97
70200;BME280;57587;55.688;37.600;2023-02-17T04:22:23;100261.31;;;-4.56;60.64
70200;BME280;57587;55.688;37.600;2023-02-17T04:24:50;100256.06;;;-4.56;60.19
70200;BME280;57587;55.688;37.600;2023-02-17T04:27:17;100257.28;;;-4.63;60.76
70200;BME280;57587;55.688;37.600;2023-02-17T04:29:44;100260.59;;;-4.59;60.73
70200;BME280;57587;55.688;37.600;2023-02-17T04:32:11;100260.81;;;-4.45;60.41
70200;BME280;57587;55.688;37.600;2023-02-17T04:34:38;100257.66;;;-4.52;60.69
70200;BME280;57587;55.688;37.600;2023-02-17T04:37:06;100252.97;;;-4.45;60.58
70200;BME280;57587;55.688;37.600;2023-02-17T04:39:33;100257.06;;;-4.39;60.69
70200;BME280;57587;55.688;37.600;2023-02-17T04:42:00;100257.91;;;-4.39;60.46
70200;BME280;57587;55.688;37.600;2023-02-17T04:44:27;100248.50;;;-4.43;60.75
70200;BME280;57587;55.688;37.600;2023-02-17T04:46:54;100246.69;;;-4.41;60.92
70200;BME280;57587;55.688;37.600;2023-02-17T04:49:21;100246.91;;;-4.46;60.92
70200;BME280;57587;55.688;37.600;2023-02-17T04:51:48;100260.31;;;-4.53;60.58
70200;BME280;57587;55.688;37.600;2023-02-17T04:54:15;100255.53;;;-4.63;61.57
70200;BME280;57587;55.688;37.600;2023-02-17T04:56:43;100258.13;;;-4.63;61.38
70200;BME280;57587;55.688;37.600;2023-02-17T04:59:10;100262.44;;;-4.61;60.85
70200;BME280;57587;55.688;37.600;2023-02-17T05:01:37;100263.34;;;-4.63;61.66
70200;BME280;57587;55.688;37.600;2023-02-17T05:04:04;100259.69;;;-4.58;61.15
70200;BME280;57587;55.688;37.600;2023-02-17T05:06:31;100260.47;;;-4.56;60.98
70200;BME280;57587;55.688;37.600;2023-02-17T05:08:58;100257.50;;;-4.49;60.25
70200;BME280;57587;55.688;37.600;2023-02-17T05:11:25;100258.91;;;-4.42;60.26
70200;BME280;57587;55.688;37.600;2023-02-17T05:13:52;100259.47;;;-4.35;60.03
70200;BME280;57587;55.688;37.600;2023-02-17T05:16:19;100256.34;;;-4.43;60.43
70200;BME280;57587;55.688;37.600;2023-02-17T05:18:46;100263.44;;;-4.45;59.88
70200;BME280;57587;55.688;37.600;2023-02-17T05:21:13;100266.81;;;-4.43;59.72
70200;BME280;57587;55.688;37.600;2023-02-17T05:23:40;100268.94;;;-4.51;60.41
70200;BME280;57587;55.688;37.600;2023-02-17T05:26:08;100267.94;;;-4.68;60.39
70200;BME280;57587;55.688;37.600;2023-02-17T05:28:36;100264.84;;;-4.76;60.66
70200;BME280;57587;55.688;37.600;2023-02-17T05:31:06;100269.09;;;-4.73;60.71
70200;BME280;57587;55.688;37.600;2023-02-17T05:33:34;100263.84;;;-4.54;60.38
70200;BME280;57587;55.688;37.600;2023-02-17T05:36:05;100261.03;;;-4.69;61.20
70200;BME280;57587;55.688;37.600;2023-02-17T05:38:33;100267.78;;;-4.65;60.90
70200;BME280;57587;55.688;37.600;2023-02-17T05:41:00;100268.25;;;-4.74;61.73
70200;BME280;57587;55.688;37.600;2023-02-17T05:43:27;100272.59;;;-4.74;62.28
70200;BME280;57587;55.688;37.600;2023-02-17T05:45:54;100261.16;;;-4.72;62.42
70200;BME280;57587;55.688;37.600;2023-02-17T05:48:21;100266.75;;;-4.60;62.22
70200;BME280;57587;55.688;37.600;2023-02-17T05:50:48;100264.84;;;-4.57;62.42
70200;BME280;57587;55.688;37.600;2023-02-17T05:53:16;100272.44;;;-4.52;61.85
70200;BME280;57587;55.688;37.600;2023-02-17T05:55:42;100275.56;;;-4.44;62.04
70200;BME280;57587;55.688;37.600;2023-02-17T05:58:10;100269.06;;;-4.35;62.04
70200;BME280;57587;55.688;37.600;2023-02-17T06:00:37;100275.88;;;-4.14;61.42
70200;BME280;57587;55.688;37.600;2023-02-17T06:03:04;100271.78;;;-4.20;61.24
70200;BME280;57587;55.688;37.600;2023-02-17T06:05:31;100273.56;;;-4.20;61.32
70200;BME280;57587;55.688;37.600;2023-02-17T06:07:58;100276.66;;;-4.12;61.73
70200;BME280;57587;55.688;37.600;2023-02-17T06:10:25;100277.06;;;-4.02;61.63
70200;BME280;57587;55.688;37.600;2023-02-17T06:12:52;100280.16;;;-3.94;61.21
70200;BME280;57587;55.688;37.600;2023-02-17T06:15:19;100281.22;;;-3.98;61.40
70200;BME280;57587;55.688;37.600;2023-02-17T06:17:47;100280.75;;;-4.06;60.98
70200;BME280;57587;55.688;37.600;2023-02-17T06:20:14;100280.84;;;-3.90;61.32
70200;BME280;57587;55.688;37.600;2023-02-17T06:22:42;100283.28;;;-3.68;60.74
70200;BME280;57587;55.688;37.600;2023-02-17T06:25:09;100285.25;;;-3.56;60.33
70200;BME280;57587;55.688;37.600;2023-02-17T06:27:36;100286.09;;;-3.38;60.38
70200;BME280;57587;55.688;37.600;2023-02-17T06:30:04;100279.88;;;-3.18;59.43
70200;BME280;57587;55.688;37.600;2023-02-17T06:32:31;100287.03;;;-3.22;59.25
70200;BME280;57587;55.688;37.600;2023-02-17T06:35:00;100282.16;;;-3.30;59.30
70200;BME280;57587;55.688;37.600;2023-02-17T06:37:29;100290.03;;;-3.47;58.56
70200;BME280;57587;55.688;37.600;2023-02-17T06:39:56;100291.72;;;-3.46;58.58
70200;BME280;57587;55.688;37.600;2023-02-17T06:42:23;100286.81;;;-3.52;58.95
70200;BME280;57587;55.688;37.600;2023-02-17T06:44:50;100288.50;;;-3.51;58.75
70200;BME280;57587;55.688;37.600;2023-02-17T06:47:17;100286.09;;;-3.38;58.12
70200;BME280;57587;55.688;37.600;2023-02-17T06:49:45;100282.56;;;-3.37;58.50
70200;BME280;57587;55.688;37.600;2023-02-17T06:52:12;100285.09;;;-3.53;58.73
70200;BME280;57587;55.688;37.600;2023-02-17T06:54:39;100279.66;;;-3.49;58.09
70200;BME280;57587;55.688;37.600;2023-02-17T06:57:06;100279.88;;;-3.71;59.08
70200;BME280;57587;55.688;37.600;2023-02-17T06:59:33;100278.63;;;-3.63;59.17
70200;BME280;57587;55.688;37.600;2023-02-17T07:02:00;100290.19;;;-3.50;59.67
70200;BME280;57587;55.688;37.600;2023-02-17T07:04:28;100280.19;;;-3.42;58.69
70200;BME280;57587;55.688;37.600;2023-02-17T07:06:55;100279.72;;;-3.33;57.85
70200;BME280;57587;55.688;37.600;2023-02-17T07:09:22;100283.56;;;-3.40;57.52
70200;BME280;57587;55.688;37.600;2023-02-17T07:11:49;100276.41;;;-3.54;57.79
70200;BME280;57587;55.688;37.600;2023-02-17T07:14:17;100273.19;;;-3.59;58.33
70200;BME280;57587;55.688;37.600;2023-02-17T07:16:44;100267.19;;;-3.61;58.45
70200;BME280;57587;55.688;37.600;2023-02-17T07:19:12;100270.56;;;-3.41;58.24
70200;BME280;57587;55.688;37.600;2023-02-17T07:21:39;100280.34;;;-3.28;57.59
70200;BME280;57587;55.688;37.600;2023-02-17T07:24:06;100286.03;;;-3.54;57.42
70200;BME280;57587;55.688;37.600;2023-02-17T07:26:38;100272.47;;;-3.62;58.22
70200;BME280;57587;55.688;37.600;2023-02-17T07:29:06;100273.63;;;-3.51;58.19
70200;BME280;57587;55.688;37.600;2023-02-17T07:31:34;100269.81;;;-3.43;57.70
70200;BME280;57587;55.688;37.600;2023-02-17T07:34:02;100269.09;;;-3.30;57.67
70200;BME280;57587;55.688;37.600;2023-02-17T07:36:30;100276.16;;;-3.14;57.33
70200;BME280;57587;55.688;37.600;2023-02-17T07:38:57;100274.94;;;-3.25;56.67
70200;BME280;57587;55.688;37.600;2023-02-17T07:41:25;100287.41;;;-3.12;55.86
70200;BME280;57587;55.688;37.600;2023-02-17T07:43:55;100275.78;;;-3.24;55.68
70200;BME280;57587;55.688;37.600;2023-02-17T07:46:23;100270.28;;;-3.02;55.75
70200;BME280;57587;55.688;37.600;2023-02-17T07:48:51;100263.66;;;-2.60;54.74
70200;BME280;57587;55.688;37.600;2023-02-17T07:51:20;100262.59;;;-0.34;50.11
70200;BME280;57587;55.688;37.600;2023-02-17T07:53:49;100262.75;;;2.31;43.40
70200;BME280;57587;55.688;37.600;2023-02-17T07:56:18;100259.25;;;3.90;38.72
70200;BME280;57587;55.688;37.600;2023-02-17T07:58:47;100256.06;;;4.72;36.04
70200;BME280;57587;55.688;37.600;2023-02-17T08:01:17;100265.28;;;5.29;34.24
70200;BME280;57587;55.688;37.600;2023-02-17T08:03:46;100247.78;;;5.57;33.94
70200;BME280;57587;55.688;37.600;2023-02-17T08:06:22;100254.53;;;5.21;33.20
70200;BME280;57587;55.688;37.600;2023-02-17T08:08:50;100266.44;;;4.10;35.38
70200;BME280;57587;55.688;37.600;2023-02-17T08:11:37;100256.09;;;3.19;36.63
70200;BME280;57587;55.688;37.600;2023-02-17T08:14:24;100268.75;;;2.69;37.99
70200;BME280;57587;55.688;37.600;2023-02-17T08:16:52;100261.88;;;1.96;39.26
70200;BME280;57587;55.688;37.600;2023-02-17T08:19:19;100258.69;;;1.17;41.08
70200;BME280;57587;55.688;37.600;2023-02-17T08:21:47;100253.53;;;0.77;42.69
70200;BME280;57587;55.688;37.600;2023-02-17T08:24:14;100257.41;;;0.59;43.14
70200;BME280;57587;55.688;37.600;2023-02-17T08:26:42;100248.22;;;-0.01;44.38
70200;BME280;57587;55.688;37.600;2023-02-17T08:29:09;100260.16;;;-0.10;45.76
70200;BME280;57587;55.688;37.600;2023-02-17T08:31:37;100252.47;;;-0.40;46.07
70200;BME280;57587;55.688;37.600;2023-02-17T08:34:07;100254.09;;;-0.52;46.77
70200;BME280;57587;55.688;37.600;2023-02-17T08:36:35;100260.88;;;-0.90;48.13
70200;BME280;57587;55.688;37.600;2023-02-17T08:39:10;100256.63;;;-1.22;49.19
70200;BME280;57587;55.688;37.600;2023-02-17T08:41:38;100253.13;;;-1.36;49.35
70200;BME280;57587;55.688;37.600;2023-02-17T08:44:11;100250.94;;;-1.14;49.13
70200;BME280;57587;55.688;37.600;2023-02-17T08:46:39;100252.78;;;-1.16;49.36
70200;BME280;57587;55.688;37.600;2023-02-17T08:49:06;100243.03;;;-1.28;49.11
70200;BME280;57587;55.688;37.600;2023-02-17T08:51:35;100245.94;;;-1.19;49.50
70200;BME280;57587;55.688;37.600;2023-02-17T08:54:04;100242.88;;;-1.11;49.54
70200;BME280;57587;55.688;37.600;2023-02-17T08:56:33;100243.59;;;-1.37;49.73
70200;BME280;57587;55.688;37.600;2023-02-17T08:59:00;100247.69;;;-1.48;49.95
70200;BME280;57587;55.688;37.600;2023-02-17T09:01:27;100241.59;;;-1.48;50.54
70200;BME280;57587;55.688;37.600;2023-02-17T09:03:56;100248.78;;;-1.52;50.61
70200;BME280;57587;55.688;37.600;2023-02-17T09:06:33;100247.47;;;-1.59;50.50
70200;BME280;57587;55.688;37.600;2023-02-17T09:09:02;100248.78;;;-1.66;51.13
70200;BME280;57587;55.688;37.600;2023-02-17T09:11:29;100243.53;;;-1.66;51.73
70200;BME280;57587;55.688;37.600;2023-02-17T09:13:57;100253.19;;;-1.67;51.86
70200;BME280;57587;55.688;37.600;2023-02-17T09:16:24;100252.81;;;-1.60;51.45
70200;BME280;57587;55.688;37.600;2023-02-17T09:18:52;100258.84;;;-1.44;50.96
70200;BME280;57587;55.688;37.600;2023-02-17T09:21:22;100251.59;;;-1.55;50.91
70200;BME280;57587;55.688;37.600;2023-02-17T09:23:49;100252.00;;;-1.47;50.73
70200;BME280;57587;55.688;37.600;2023-02-17T09:26:16;100246.09;;;-1.80;51.08
70200;BME280;57587;55.688;37.600;2023-02-17T09:28:44;100240.06;;;-1.97;51.83
70200;BME280;57587;55.688;37.600;2023-02-17T09:31:15;100237.38;;;-1.51;51.18
70200;BME280;57587;55.688;37.600;2023-02-17T09:33:43;100237.69;;;-1.27;50.92
70200;BME280;57587;55.688;37.600;2023-02-17T09:36:12;100237.63;;;-1.11;50.83
70200;BME280;57587;55.688;37.600;2023-02-17T09:38:40;100233.09;;;-1.09;49.25
70200;BME280;57587;55.688;37.600;2023-02-17T09:43:45;100227.47;;;-1.31;50.08
70200;BME280;57587;55.688;37.600;2023-02-17T09:46:20;100223.34;;;-1.21;50.23
70200;BME280;57587;55.688;37.600;2023-02-17T09:48:51;100230.00;;;-1.16;50.14
70200;BME280;57587;55.688;37.600;2023-02-17T09:57:13;100222.75;;;-1.41;50.95
70200;BME280;57587;55.688;37.600;2023-02-17T09:59:45;100219.91;;;-1.52;51.63
70200;BME280;57587;55.688;37.600;2023-02-17T10:02:35;100209.56;;;-1.39;51.64
70200;BME280;57587;55.688;37.600;2023-02-17T10:05:07;100212.38;;;-1.28;50.87
70200;BME280;57587;55.688;37.600;2023-02-17T10:07:45;100211.31;;;-1.40;51.64
70200;BME280;57587;55.688;37.600;2023-02-17T10:10:17;100207.47;;;-1.34;51.34
70200;BME280;57587;55.688;37.600;2023-02-17T10:12:50;100210.59;;;-1.13;50.37
70200;BME280;57587;55.688;37.600;2023-02-17T10:15:29;100212.38;;;-1.28;50.39
70200;BME280;57587;55.688;37.600;2023-02-17T10:20:59;100206.06;;;-1.54;50.20
70200;BME280;57587;55.688;37.600;2023-02-17T10:23:28;100198.16;;;-1.68;50.20
70200;BME280;57587;55.688;37.600;2023-02-17T10:28:47;100200.78;;;-1.68;50.85
70200;BME280;57587;55.688;37.600;2023-02-17T10:31:42;100200.22;;;-1.73;50.86
70200;BME280;57587;55.688;37.600;2023-02-17T10:37:09;100199.19;;;-1.71;51.45
70200;BME280;57587;55.688;37.600;2023-02-17T10:39:48;100181.38;;;-1.66;51.15
70200;BME280;57587;55.688;37.600;2023-02-17T10:42:21;100181.13;;;-1.61;50.89
70200;BME280;57587;55.688;37.600;2023-02-17T10:44:52;100172.88;;;-1.41;50.19
70200;BME280;57587;55.688;37.600;2023-02-17T10:47:21;100179.06;;;-1.27;49.48
70200;BME280;57587;55.688;37.600;2023-02-17T10:49:51;100171.50;;;-1.32;50.24
70200;BME280;57587;55.688;37.600;2023-02-17T10:52:38;100164.63;;;-1.34;50.68
70200;BME280;57587;55.688;37.600;2023-02-17T10:58:12;100163.59;;;-1.03;50.50
70200;BME280;57587;55.688;37.600;2023-02-17T11:00:41;100172.88;;;-0.83;49.42
70200;BME280;57587;55.688;37.600;2023-02-17T11:03:23;100163.47;;;-0.87;50.16
70200;BME280;57587;55.688;37.600;2023-02-17T11:05:56;100159.63;;;-0.96;50.53
70200;BME280;57587;55.688;37.600;2023-02-17T11:08:36;100161.09;;;-1.05;51.34
70200;BME280;57587;55.688;37.600;2023-02-17T11:11:12;100161.09;;;-1.05;51.60
70200;BME280;57587;55.688;37.600;2023-02-17T11:16:32;100162.56;;;-1.01;51.50
70200;BME280;57587;55.688;37.600;2023-02-17T11:19:01;100156.19;;;-1.25;51.95
70200;BME280;57587;55.688;37.600;2023-02-17T11:21:29;100156.97;;;-1.23;52.19
70200;BME280;57587;55.688;37.600;2023-02-17T11:24:03;100153.78;;;-1.14;52.72
70200;BME280;57587;55.688;37.600;2023-02-17T11:26:34;100151.94;;;-0.99;52.27
70200;BME280;57587;55.688;37.600;2023-02-17T11:29:14;100144.91;;;-0.84;50.98
70200;BME280;57587;55.688;37.600;2023-02-17T11:31:57;100147.19;;;-0.93;50.84
70200;BME280;57587;55.688;37.600;2023-02-17T11:34:28;100141.72;;;-0.89;51.08
70200;BME280;57587;55.688;37.600;2023-02-17T11:39:39;100140.53;;;-0.98;50.36
70200;BME280;57587;55.688;37.600;2023-02-17T11:42:15;100139.97;;;-1.03;51.22
70200;BME280;57587;55.688;37.600;2023-02-17T11:44:42;100133.47;;;-0.98;50.73
70200;BME280;57587;55.688;37.600;2023-02-17T12:10:30;100124.06;;;-2.02;52.54
70200;BME280;57587;55.688;37.600;2023-02-17T12:16:01;100128.88;;;-1.94;52.45
70200;BME280;57587;55.688;37.600;2023-02-17T12:26:36;100126.88;;;-2.05;52.74
70200;BME280;57587;55.688;37.600;2023-02-17T12:31:59;100118.28;;;-2.07;53.09
70200;BME280;57587;55.688;37.600;2023-02-17T12:34:43;100118.81;;;-2.16;53.59
70200;BME280;57587;55.688;37.600;2023-02-17T12:37:23;100124.22;;;-2.19;53.41
70200;BME280;57587;55.688;37.600;2023-02-17T12:39:58;100124.44;;;-2.08;53.46
70200;BME280;57587;55.688;37.600;2023-02-17T12:42:44;100123.28;;;-2.18;53.44
70200;BME280;57587;55.688;37.600;2023-02-17T12:45:20;100124.19;;;-2.34;53.74
70200;BME280;57587;55.688;37.600;2023-02-17T12:50:29;100122.75;;;-2.39;53.60
70200;BME280;57587;55.688;37.600;2023-02-17T12:53:02;100118.00;;;-2.33;54.04
70200;BME280;57587;55.688;37.600;2023-02-17T12:55:40;100127.75;;;-2.20;53.86
70200;BME280;57587;55.688;37.600;2023-02-17T12:58:19;100127.06;;;-2.38;54.37
70200;BME280;57587;55.688;37.600;2023-02-17T13:00:54;100114.41;;;-2.46;54.67
70200;BME280;57587;55.688;37.600;2023-02-17T13:03:29;100111.78;;;-2.46;54.76
70200;BME280;57587;55.688;37.600;2023-02-17T13:06:18;100118.59;;;-2.27;54.53
70200;BME280;57587;55.688;37.600;2023-02-17T13:09:00;100113.78;;;-2.35;54.07
70200;BME280;57587;55.688;37.600;2023-02-17T13:11:33;100109.94;;;-2.29;54.31
70200;BME280;57587;55.688;37.600;2023-02-17T13:14:23;100114.47;;;-2.32;54.08
70200;BME280;57587;55.688;37.600;2023-02-17T13:16:51;100111.06;;;-2.34;54.19
70200;BME280;57587;55.688;37.600;2023-02-17T13:19:30;100099.88;;;-2.21;53.97
70200;BME280;57587;55.688;37.600;2023-02-17T13:21:58;100102.25;;;-2.17;53.82
70200;BME280;57587;55.688;37.600;2023-02-17T13:24:36;100094.38;;;-2.02;54.05
70200;BME280;57587;55.688;37.600;2023-02-17T13:27:28;100102.94;;;-1.84;52.63
70200;BME280;57587;55.688;37.600;2023-02-17T13:33:27;100100.69;;;-1.91;50.99
70200;BME280;57587;55.688;37.600;2023-02-17T13:35:50;100098.13;;;-2.06;51.93
70200;BME280;57587;55.688;37.600;2023-02-17T13:38:31;100092.06;;;-2.07;51.60
70200;BME280;57587;55.688;37.600;2023-02-17T13:41:01;100089.91;;;-2.00;51.80
70200;BME280;57587;55.688;37.600;2023-02-17T13:43:33;100084.84;;;-1.89;52.40
70200;BME280;57587;55.688;37.600;2023-02-17T13:46:06;100083.94;;;-1.88;51.86
70200;BME280;57587;55.688;37.600;2023-02-17T13:48:36;100087.09;;;-1.97;52.31
70200;BME280;57587;55.688;37.600;2023-02-17T13:51:20;100089.22;;;-2.18;52.87
70200;BME280;57587;55.688;37.600;2023-02-17T13:53:50;100088.19;;;-2.16;52.27
70200;BME280;57587;55.688;37.600;2023-02-17T13:56:26;100096.50;;;-2.23;52.90
70200;BME280;57587;55.688;37.600;2023-02-17T13:59:09;100086.72;;;-2.36;52.93
70200;BME280;57587;55.688;37.600;2023-02-17T14:01:40;100074.91;;;-2.43;53.68
70200;BME280;57587;55.688;37.600;2023-02-17T14:04:22;100072.53;;;-2.32;53.59
70200;BME280;57587;55.688;37.600;2023-02-17T14:06:51;100073.25;;;-2.29;53.87
70200;BME280;57587;55.688;37.600;2023-02-17T14:09:25;100071.56;;;-2.30;53.65
70200;BME280;57587;55.688;37.600;2023-02-17T14:11:53;100071.34;;;-2.42;53.65
70200;BME280;57587;55.688;37.600;2023-02-17T14:14:32;100081.88;;;-2.58;54.65
70200;BME280;57587;55.688;37.600;2023-02-17T14:19:45;100071.69;;;-2.48;54.63
70200;BME280;57587;55.688;37.600;2023-02-17T14:22:30;100075.94;;;-2.45;54.49
70200;BME280;57587;55.688;37.600;2023-02-17T14:25:11;100079.38;;;-2.45;54.35
70200;BME280;57587;55.688;37.600;2023-02-17T14:27:44;100069.78;;;-2.60;54.39
70200;BME280;57587;55.688;37.600;2023-02-17T14:30:55;100072.06;;;-2.54;54.52
70200;BME280;57587;55.688;37.600;2023-02-17T14:33:22;100076.09;;;-2.48;53.92
70200;BME280;57587;55.688;37.600;2023-02-17T14:35:53;100072.63;;;-2.63;54.40
70200;BME280;57587;55.688;37.600;2023-02-17T14:38:25;100081.34;;;-2.48;54.33
70200;BME280;57587;55.688;37.600;2023-02-17T14:40:53;100070.34;;;-2.39;53.90